Time;durP1;ratioP1;P1;durP2;ratioP2;P2;SDS_P1;SDS_P2;PMS_P1;PMS_P2;Temp;Humidity;BMP_temperature;BMP_pressure;BME280_temperature;BME280_humidity;BME280_pressure;Samples;Min_cycle;Max_cycle;Signal;HPM_P1;HPM_P2
2022/05/21 00:01:42;;;;;;;33.63;17.90;;;10.90;99.90;;;;;;5070965;28;20053;-60
2022/05/21 00:04:08;;;;;;;29.05;18.42;;;11.00;99.90;;;;;;5070573;28;20036;-59
2022/05/21 00:06:34;;;;;;;30.45;19.73;;;10.80;99.90;;;;;;5070765;28;20051;-60
2022/05/21 00:09:00;;;;;;;32.97;19.00;;;10.90;99.90;;;;;;5069219;28;20494;-60
2022/05/21 00:11:25;;;;;;;31.08;19.48;;;11.00;99.90;;;;;;5070586;28;20032;-60
2022/05/21 00:13:51;;;;;;;35.10;21.98;;;10.90;99.90;;;;;;5070628;28;20036;-60
2022/05/21 00:16:17;;;;;;;31.85;21.38;;;11.00;99.90;;;;;;5070788;28;20108;-60
2022/05/21 00:18:43;;;;;;;40.80;22.63;;;11.10;99.90;;;;;;5070792;28;20106;-60
2022/05/21 00:21:11;;;;;;;35.45;23.65;;;11.20;99.90;;;;;;5070745;28;20072;-60
2022/05/21 00:23:37;;;;;;;49.53;26.38;;;11.10;99.90;;;;;;5070253;28;20052;-60
2022/05/21 00:26:08;;;;;;;45.03;26.70;;;11.10;99.90;;;;;;5070291;28;20040;-60
2022/05/21 00:28:36;;;;;;;47.40;27.77;;;11.30;99.90;;;;;;5070356;28;20040;-60
2022/05/21 00:31:03;;;;;;;47.20;28.52;;;10.90;99.90;;;;;;5070458;28;20075;-60
2022/05/21 00:33:30;;;;;;;50.25;30.20;;;10.90;99.90;;;;;;5070396;28;20047;-59
2022/05/21 00:35:56;;;;;;;51.70;30.30;;;11.20;99.90;;;;;;5070037;28;20154;-59
2022/05/21 00:38:22;;;;;;;55.75;31.30;;;11.00;99.90;;;;;;5070329;28;20041;-59
2022/05/21 00:40:48;;;;;;;57.28;33.03;;;11.20;99.90;;;;;;5070695;28;20033;-60
2022/05/21 00:43:35;;;;;;;59.95;31.08;;;11.20;99.90;;;;;;5070150;28;20119;-60
2022/05/21 00:46:02;;;;;;;51.58;31.08;;;11.10;99.90;;;;;;5070291;28;20365;-59
2022/05/21 00:48:28;;;;;;;58.20;31.17;;;11.00;99.90;;;;;;5070291;28;20048;-59
2022/05/21 00:50:54;;;;;;;60.00;30.27;;;11.10;99.90;;;;;;5070455;28;20040;-60
2022/05/21 00:53:21;;;;;;;49.13;29.58;;;11.20;99.90;;;;;;5070814;28;20464;-59
2022/05/21 00:55:48;;;;;;;52.60;31.23;;;11.10;99.90;;;;;;5073955;28;20032;-60
2022/05/21 01:01:02;;;;;;;55.28;31.42;;;11.30;99.90;;;;;;5073835;28;20066;-60
2022/05/21 01:03:31;;;;;;;56.72;32.72;;;11.30;99.90;;;;;;5073815;28;20033;-60
2022/05/21 01:05:59;;;;;;;46.40;28.70;;;11.30;99.90;;;;;;5073692;28;20079;-60
2022/05/21 01:08:25;;;;;;;56.35;32.58;;;11.50;99.90;;;;;;5073509;28;20510;-59
2022/05/21 01:10:55;;;;;;;53.35;32.42;;;11.60;99.90;;;;;;5073791;28;20097;-59
2022/05/21 01:13:24;;;;;;;56.05;34.40;;;11.50;99.90;;;;;;5074100;28;20072;-59
2022/05/21 01:15:53;;;;;;;50.92;32.63;;;11.40;99.90;;;;;;5073547;28;20055;-60
2022/05/21 01:18:19;;;;;;;47.85;32.75;;;11.40;99.90;;;;;;5073604;28;20029;-60
2022/05/21 01:20:48;;;;;;;55.00;33.72;;;11.30;99.90;;;;;;5073626;28;20047;-60
2022/05/21 01:23:16;;;;;;;60.38;34.17;;;11.50;99.90;;;;;;5073518;28;20040;-60
2022/05/21 01:25:43;;;;;;;56.70;34.47;;;11.30;99.90;;;;;;5073183;28;20036;-59
2022/05/21 01:28:13;;;;;;;48.85;31.90;;;11.60;99.90;;;;;;5073187;28;20045;-59
2022/05/21 01:30:42;;;;;;;57.78;34.55;;;11.70;99.90;;;;;;5073395;28;20075;-60
2022/05/21 01:33:11;;;;;;;54.53;33.63;;;11.60;99.90;;;;;;5073175;28;20044;-59
2022/05/21 01:35:39;;;;;;;58.72;35.10;;;11.70;99.90;;;;;;5072634;28;20033;-59
2022/05/21 01:38:06;;;;;;;59.55;36.50;;;11.80;99.90;;;;;;5072709;28;20123;-59
2022/05/21 01:40:32;;;;;;;56.72;36.28;;;11.70;99.90;;;;;;5073285;28;20509;-59
2022/05/21 01:45:42;;;;;;;52.38;32.75;;;11.80;99.90;;;;;;5072742;28;20044;-61
2022/05/21 01:48:09;;;;;;;55.15;34.33;;;11.80;99.90;;;;;;5072638;28;20487;-59
2022/05/21 01:50:35;;;;;;;59.42;33.95;;;11.90;99.90;;;;;;5073102;28;20040;-59
2022/05/21 01:53:02;;;;;;;54.95;34.95;;;11.90;99.90;;;;;;5073140;28;20125;-60
2022/05/21 01:55:27;;;;;;;55.63;35.25;;;11.90;99.90;;;;;;5072718;28;20037;-58
2022/05/21 01:57:53;;;;;;;64.80;37.58;;;11.90;99.90;;;;;;5073048;28;20123;-59
2022/05/21 02:00:20;;;;;;;56.13;36.97;;;11.70;99.90;;;;;;5072556;28;20040;-59
2022/05/21 02:02:46;;;;;;;55.50;34.95;;;11.80;99.90;;;;;;5072742;28;20115;-59
2022/05/21 02:05:12;;;;;;;53.88;35.03;;;11.80;99.90;;;;;;5072585;28;20044;-60
2022/05/21 02:07:37;;;;;;;57.50;36.70;;;12.00;99.90;;;;;;5072647;28;20456;-59
2022/05/21 02:10:05;;;;;;;62.75;37.45;;;11.80;99.90;;;;;;5072633;28;20107;-59
2022/05/21 02:12:32;;;;;;;59.40;36.00;;;11.90;99.90;;;;;;5072645;28;20131;-59
2022/05/21 02:14:58;;;;;;;59.00;34.53;;;12.10;99.90;;;;;;5072184;28;20040;-59
2022/05/21 02:17:24;;;;;;;62.03;36.05;;;12.00;99.90;;;;;;5072257;28;20041;-59
2022/05/21 02:19:50;;;;;;;54.20;34.42;;;11.80;99.90;;;;;;5072154;28;20036;-59
2022/05/21 02:22:16;;;;;;;50.65;32.97;;;12.00;99.90;;;;;;5072203;28;20039;-59
2022/05/21 02:24:42;;;;;;;54.47;32.42;;;11.90;99.90;;;;;;5072192;28;20044;-59
2022/05/21 02:27:13;;;;;;;56.90;34.03;;;12.00;99.90;;;;;;5071985;28;20039;-60
2022/05/21 02:29:39;;;;;;;52.95;33.10;;;12.10;99.90;;;;;;5072171;28;20124;-60
2022/05/21 02:32:06;;;;;;;51.42;30.92;;;12.30;99.90;;;;;;5071936;28;20090;-60
2022/05/21 02:34:32;;;;;;;51.20;28.52;;;12.30;99.90;;;;;;5071707;28;20055;-59
2022/05/21 02:39:42;;;;;;;46.88;28.38;;;12.20;99.90;;;;;;5072273;28;20086;-59
2022/05/21 02:42:42;;;;;;;43.13;26.65;;;12.10;99.90;;;;;;5071633;28;20072;-59
2022/05/21 02:44:55;;;;;;;45.75;25.30;;;12.10;99.90;;;;;;5071547;28;20117;-60
2022/05/21 02:47:22;;;;;;;42.03;24.75;;;12.10;99.90;;;;;;5071235;28;20052;-59
2022/05/21 02:49:47;;;;;;;40.05;22.83;;;12.50;99.90;;;;;;5071781;28;20403;-60
2022/05/21 02:52:15;;;;;;;38.85;21.35;;;12.20;99.90;;;;;;5071852;28;20033;-59
2022/05/21 02:54:41;;;;;;;34.72;20.85;;;12.50;99.90;;;;;;5071724;28;20044;-59
2022/05/21 02:57:09;;;;;;;38.80;19.10;;;12.40;99.90;;;;;;5071791;28;20036;-59
2022/05/21 02:59:38;;;;;;;33.28;18.08;;;12.50;99.90;;;;;;5071766;28;20045;-60
2022/05/21 03:02:04;;;;;;;33.65;17.65;;;12.30;99.90;;;;;;5071648;28;20044;-60
2022/05/21 03:04:30;;;;;;;32.33;15.77;;;12.50;99.90;;;;;;5068919;28;20536;-60
2022/05/21 03:06:56;;;;;;;33.53;15.55;;;12.50;99.90;;;;;;5071597;28;20541;-59
2022/05/21 03:12:08;;;;;;;33.05;13.52;;;12.50;99.90;;;;;;5070919;28;20048;-58
2022/05/21 03:14:34;;;;;;;31.02;12.88;;;12.30;99.90;;;;;;5071483;28;20041;-60
2022/05/21 03:16:59;;;;;;;30.55;12.77;;;12.60;99.90;;;;;;5070813;28;20111;-59
2022/05/21 03:19:30;;;;;;;28.70;12.23;;;12.30;99.90;;;;;;5071396;28;20036;-59
2022/05/21 03:21:56;;;;;;;33.33;11.90;;;12.40;99.90;;;;;;5071275;28;20028;-60
2022/05/21 03:24:22;;;;;;;32.85;11.50;;;12.70;99.90;;;;;;5071441;28;20066;-59
2022/05/21 03:26:47;;;;;;;29.33;10.60;;;12.70;99.90;;;;;;5071253;28;20470;-60
2022/05/21 03:29:13;;;;;;;29.33;10.05;;;12.40;99.90;;;;;;5071288;28;20036;-60
2022/05/21 03:31:39;;;;;;;29.67;10.38;;;12.70;99.90;;;;;;5071357;28;20047;-60
2022/05/21 03:34:05;;;;;;;25.17;9.30;;;12.40;99.90;;;;;;5071132;28;20036;-58
2022/05/21 03:36:32;;;;;;;27.10;8.75;;;12.70;99.90;;;;;;5070755;28;20541;-59
2022/05/21 03:38:58;;;;;;;23.40;8.70;;;12.50;99.90;;;;;;5071299;28;20174;-59
2022/05/21 03:41:25;;;;;;;22.02;8.63;;;12.70;99.90;;;;;;5071095;28;20044;-59
2022/05/21 03:43:52;;;;;;;24.90;8.80;;;12.50;99.90;;;;;;5070969;28;20045;-59
2022/05/21 03:46:18;;;;;;;25.58;7.30;;;12.70;99.90;;;;;;5070645;28;20049;-59
2022/05/21 03:48:44;;;;;;;26.50;8.40;;;12.60;99.90;;;;;;5070947;28;20057;-60
2022/05/21 03:51:10;;;;;;;27.23;7.70;;;12.60;99.90;;;;;;5070802;28;20558;-60
2022/05/21 03:53:36;;;;;;;24.38;7.38;;;12.90;99.90;;;;;;5070658;28;20453;-60
2022/05/21 03:56:02;;;;;;;21.67;7.97;;;12.60;99.90;;;;;;5070992;28;20071;-59
2022/05/21 03:58:28;;;;;;;26.08;7.57;;;12.80;99.90;;;;;;5070711;28;20052;-59
2022/05/21 04:00:54;;;;;;;23.77;7.95;;;12.90;99.90;;;;;;5070951;28;20037;-59
2022/05/21 04:03:20;;;;;;;19.75;5.10;;;12.70;99.90;;;;;;5071034;28;20094;-59
2022/05/21 04:05:45;;;;;;;20.65;4.43;;;13.00;99.90;;;;;;5070440;28;20047;-60
2022/05/21 04:08:11;;;;;;;26.05;5.40;;;13.20;99.90;;;;;;5070699;28;20037;-59
2022/05/21 04:10:37;;;;;;;21.88;4.70;;;13.00;99.90;;;;;;5070952;28;20541;-60
2022/05/21 04:13:03;;;;;;;20.70;4.35;;;12.90;99.90;;;;;;5070795;28;20491;-60
2022/05/21 04:15:28;;;;;;;19.17;3.80;;;13.00;99.90;;;;;;5070644;28;20033;-59
2022/05/21 04:17:54;;;;;;;17.30;3.35;;;13.20;99.90;;;;;;5070544;28;20049;-59
2022/05/21 04:20:23;;;;;;;14.82;3.28;;;13.20;99.90;;;;;;5070692;28;20040;-59
2022/05/21 04:22:49;;;;;;;18.33;3.50;;;13.20;99.90;;;;;;5070865;28;20071;-59
2022/05/21 04:25:15;;;;;;;17.83;3.55;;;13.20;99.90;;;;;;5070723;28;20074;-59
2022/05/21 04:27:41;;;;;;;17.88;3.58;;;13.10;99.90;;;;;;5070503;28;20418;-59
2022/05/21 04:30:11;;;;;;;13.73;3.05;;;13.10;99.90;;;;;;5074010;28;20071;-59
2022/05/21 04:32:36;;;;;;;16.73;3.70;;;13.30;99.90;;;;;;5074183;28;20067;-58
2022/05/21 04:35:03;;;;;;;16.80;3.20;;;13.30;99.90;;;;;;5074214;28;20040;-60
2022/05/21 04:37:28;;;;;;;18.73;3.50;;;13.20;99.90;;;;;;5073018;28;20051;-59
2022/05/21 04:39:54;;;;;;;15.43;3.25;;;13.20;99.90;;;;;;5074329;28;20052;-59
2022/05/21 04:42:20;;;;;;;13.32;2.72;;;13.20;99.90;;;;;;5074144;28;20044;-60
2022/05/21 04:44:45;;;;;;;13.75;2.95;;;13.10;99.90;;;;;;5074243;28;20043;-60
2022/05/21 04:47:11;;;;;;;14.98;3.42;;;13.10;99.90;;;;;;5073722;28;20082;-60
2022/05/21 04:49:37;;;;;;;15.40;3.38;;;13.10;99.90;;;;;;5074175;28;20040;-60
2022/05/21 04:52:03;;;;;;;15.95;3.05;;;13.00;99.90;;;;;;5074128;28;20032;-60
2022/05/21 04:54:29;;;;;;;23.20;3.88;;;13.00;99.90;;;;;;5073752;28;20113;-60
2022/05/21 04:56:56;;;;;;;20.77;3.58;;;13.00;99.90;;;;;;5074063;28;20530;-60
2022/05/21 04:59:21;;;;;;;15.90;3.30;;;13.20;99.90;;;;;;5072549;28;20048;-60
2022/05/21 05:01:47;;;;;;;22.42;3.38;;;13.20;99.90;;;;;;5072686;28;20471;-60
2022/05/21 05:04:13;;;;;;;14.82;3.45;;;13.10;99.90;;;;;;5073841;28;20090;-59
2022/05/21 05:06:39;;;;;;;18.30;3.25;;;13.10;99.90;;;;;;5071978;28;20041;-59
2022/05/21 05:09:06;;;;;;;14.25;2.97;;;13.10;99.90;;;;;;5073894;28;20039;-59
2022/05/21 05:11:32;;;;;;;17.85;3.33;;;13.10;99.90;;;;;;5073607;28;20043;-60
2022/05/21 05:13:58;;;;;;;15.23;3.40;;;13.20;99.90;;;;;;5073576;28;20042;-59
2022/05/21 05:16:24;;;;;;;16.45;2.92;;;13.20;99.90;;;;;;5073850;28;20139;-59
2022/05/21 05:18:49;;;;;;;18.50;3.00;;;13.20;99.90;;;;;;5073650;28;20421;-61
2022/05/21 05:21:15;;;;;;;16.77;3.95;;;13.20;99.90;;;;;;5073504;28;20068;-59
2022/05/21 05:23:41;;;;;;;18.02;3.00;;;13.10;99.90;;;;;;5073674;28;20040;-59
2022/05/21 05:26:06;;;;;;;19.50;2.95;;;13.20;99.90;;;;;;5073477;28;20494;-59
2022/05/21 05:28:32;;;;;;;22.65;3.35;;;13.10;99.90;;;;;;5073464;28;20093;-59
2022/05/21 05:30:58;;;;;;;10.43;2.72;;;13.20;99.90;;;;;;5073264;28;20051;-59
2022/05/21 05:33:24;;;;;;;17.25;3.13;;;13.20;99.90;;;;;;5071765;28;20476;-60
2022/05/21 05:35:53;;;;;;;15.05;3.20;;;13.30;99.90;;;;;;5072816;28;20048;-59
2022/05/21 05:38:21;;;;;;;15.80;3.55;;;13.20;99.90;;;;;;5073529;28;20519;-60
2022/05/21 05:40:50;;;;;;;15.48;2.80;;;13.10;99.90;;;;;;5073035;28;20422;-60
2022/05/21 05:43:17;;;;;;;16.65;3.58;;;13.20;99.90;;;;;;5073221;28;20041;-59
2022/05/21 05:45:42;;;;;;;17.02;2.95;;;13.40;99.90;;;;;;5072960;28;20083;-59
2022/05/21 05:48:08;;;;;;;15.65;3.10;;;13.50;99.90;;;;;;5072965;28;20080;-59
2022/05/21 05:50:34;;;;;;;17.55;3.22;;;13.50;99.90;;;;;;5073068;28;20123;-59
2022/05/21 05:53:05;;;;;;;16.48;2.72;;;13.60;99.90;;;;;;5073251;28;20353;-60
2022/05/21 05:55:32;;;;;;;12.60;2.78;;;13.80;99.90;;;;;;5072668;28;20040;-58
2022/05/21 05:57:58;;;;;;;18.23;2.90;;;13.70;99.90;;;;;;5072928;28;20033;-58
2022/05/21 06:00:25;;;;;;;14.68;2.72;;;13.70;99.90;;;;;;5071181;28;20085;-59
2022/05/21 06:02:59;;;;;;;14.68;3.05;;;13.70;99.90;;;;;;5072760;28;20049;-59
2022/05/21 06:05:31;;;;;;;12.95;2.85;;;13.60;99.90;;;;;;5072065;28;20190;-59
2022/05/21 06:08:02;;;;;;;18.05;2.97;;;13.70;99.90;;;;;;5072721;28;20040;-58
2022/05/21 06:10:36;;;;;;;20.33;3.45;;;13.70;99.90;;;;;;5072486;28;20123;-59
2022/05/21 06:13:03;;;;;;;19.65;3.47;;;13.60;99.90;;;;;;5072593;28;20360;-59
2022/05/21 06:15:29;;;;;;;14.95;2.97;;;13.70;99.90;;;;;;5072639;28;20391;-59
2022/05/21 06:17:55;;;;;;;13.32;2.83;;;13.80;99.90;;;;;;5072861;28;20743;-59
2022/05/21 06:20:24;;;;;;;20.42;3.08;;;13.80;99.90;;;;;;5072279;28;20037;-59
2022/05/21 06:22:50;;;;;;;14.98;2.97;;;14.00;99.90;;;;;;5072385;28;20060;-59
2022/05/21 06:25:18;;;;;;;16.40;2.83;;;14.00;99.90;;;;;;5070031;28;20047;-59
2022/05/21 06:27:50;;;;;;;17.65;3.28;;;14.00;99.90;;;;;;5068769;28;20100;-60
2022/05/21 06:30:18;;;;;;;16.70;3.08;;;14.00;99.90;;;;;;5070700;28;20071;-59
2022/05/21 06:32:44;;;;;;;16.13;2.85;;;14.20;99.90;;;;;;5071960;28;20036;-59
2022/05/21 06:35:11;;;;;;;15.95;2.70;;;14.20;99.90;;;;;;5071838;28;20033;-59
2022/05/21 06:37:38;;;;;;;10.95;2.72;;;14.20;99.90;;;;;;5061887;28;20411;-59
2022/05/21 06:40:05;;;;;;;15.82;3.20;;;14.20;99.90;;;;;;5063909;28;20040;-59
2022/05/21 06:42:31;;;;;;;9.90;2.40;;;14.20;99.90;;;;;;5061050;28;20037;-60
2022/05/21 06:44:57;;;;;;;11.80;2.50;;;14.30;99.90;;;;;;5064385;28;20036;-60
2022/05/21 06:47:23;;;;;;;16.10;2.47;;;14.40;99.90;;;;;;5063795;28;20076;-59
2022/05/21 06:49:52;;;;;;;16.77;2.95;;;14.40;99.90;;;;;;5063386;28;20029;-58
2022/05/21 06:52:18;;;;;;;16.35;3.10;;;14.40;99.90;;;;;;5062110;28;20079;-58
2022/05/21 06:54:44;;;;;;;12.00;2.53;;;14.40;99.90;;;;;;5064095;28;20064;-58
2022/05/21 06:57:10;;;;;;;9.00;2.67;;;14.30;99.90;;;;;;5061684;28;20395;-58
2022/05/21 06:59:36;;;;;;;10.90;3.00;;;14.30;99.90;;;;;;5064065;28;20105;-58
2022/05/21 07:02:02;;;;;;;13.27;2.63;;;14.50;99.90;;;;;;5062929;28;20048;-58
2022/05/21 07:09:57;;;;;;;;;;;14.80;99.90;;;;;;5064840;28;20043;-58
2022/05/21 07:12:23;;;;;;;12.35;2.30;;;14.80;99.90;;;;;;5063087;28;20310;-58
2022/05/21 07:14:49;;;;;;;13.52;2.50;;;14.80;99.90;;;;;;5063381;28;20037;-58
2022/05/21 07:17:16;;;;;;;10.70;2.42;;;14.80;99.90;;;;;;5063381;28;20047;-58
2022/05/21 07:19:42;;;;;;;11.65;2.75;;;14.70;99.90;;;;;;5063048;28;20435;-59
2022/05/21 07:22:09;;;;;;;17.17;2.75;;;14.90;99.90;;;;;;5064021;28;20118;-59
2022/05/21 07:24:44;;;;;;;14.05;2.63;;;15.10;99.90;;;;;;5062827;28;20104;-59
2022/05/21 07:27:12;;;;;;;13.18;2.60;;;15.10;99.90;;;;;;5045337;28;20044;-59
2022/05/21 07:29:41;;;;;;;15.48;2.70;;;15.10;99.90;;;;;;5063741;28;20146;-58
2022/05/21 07:32:19;;;;;;;16.95;2.75;;;15.10;99.90;;;;;;5058047;28;20041;-58
2022/05/21 07:34:45;;;;;;;11.80;2.38;;;15.10;99.90;;;;;;5068565;28;20048;-59
2022/05/21 07:37:11;;;;;;;13.50;2.40;;;15.10;99.90;;;;;;5060063;28;20048;-58
2022/05/21 07:39:36;;;;;;;11.50;2.88;;;15.00;99.90;;;;;;5068581;28;20043;-58
2022/05/21 07:42:02;;;;;;;11.63;2.60;;;15.00;99.90;;;;;;5066851;28;20033;-58
2022/05/21 07:44:28;;;;;;;14.63;2.40;;;14.90;99.90;;;;;;5066893;28;20040;-58
2022/05/21 07:46:53;;;;;;;9.43;2.17;;;14.80;99.90;;;;;;5069997;28;20120;-59
2022/05/21 07:49:19;;;;;;;13.07;2.20;;;14.90;99.90;;;;;;5069908;28;20043;-59
2022/05/21 07:51:45;;;;;;;11.20;2.40;;;15.10;99.90;;;;;;5069570;28;20036;-58
2022/05/21 07:54:10;;;;;;;9.10;2.50;;;15.20;99.90;;;;;;5070457;28;20037;-59
2022/05/21 07:56:36;;;;;;;11.43;2.00;;;15.20;99.90;;;;;;5070004;28;20079;-59
2022/05/21 07:59:02;;;;;;;14.30;2.05;;;15.50;99.90;;;;;;5069090;28;20119;-59
2022/05/21 08:01:28;;;;;;;11.88;2.00;;;15.60;99.90;;;;;;5069946;28;20041;-58
2022/05/21 08:03:54;;;;;;;13.38;2.33;;;15.50;99.90;;;;;;5072894;28;20118;-60
2022/05/21 08:06:19;;;;;;;10.65;1.80;;;15.40;99.90;;;;;;5073324;28;20045;-60
2022/05/21 08:08:48;;;;;;;9.93;2.13;;;15.40;99.90;;;;;;5072626;28;20119;-60
2022/05/21 08:11:14;;;;;;;11.63;2.13;;;15.70;99.90;;;;;;5073589;28;20039;-60
2022/05/21 08:13:40;;;;;;;9.82;1.73;;;15.80;99.90;;;;;;5072733;28;20036;-59
2022/05/21 08:16:05;;;;;;;13.25;2.00;;;15.80;99.90;;;;;;5069978;28;20056;-59
2022/05/21 08:18:31;;;;;;;9.68;1.83;;;15.80;99.90;;;;;;5068607;28;20541;-61
2022/05/21 08:20:57;;;;;;;8.25;1.77;;;15.80;99.90;;;;;;5070229;28;20041;-59
2022/05/21 08:28:51;;;;;;;13.55;2.15;;;15.50;99.90;;;;;;5071127;28;20043;-61
2022/05/21 08:31:17;;;;;;;16.10;2.80;;;15.80;99.90;;;;;;5066159;28;20123;-59
2022/05/21 08:33:43;;;;;;;9.50;1.80;;;15.80;99.90;;;;;;5066461;28;20506;-58
2022/05/21 08:36:09;;;;;;;11.60;2.33;;;15.80;99.90;;;;;;5049138;28;20072;-57
2022/05/21 08:38:34;;;;;;;12.52;1.85;;;15.70;99.90;;;;;;5060985;28;20083;-58
2022/05/21 08:41:11;;;;;;;8.38;1.70;;;15.80;99.90;;;;;;5063641;28;20032;-57
2022/05/21 08:44:05;;;;;;;9.35;2.05;;;16.00;99.90;;;;;;5060506;28;20040;-58
2022/05/21 08:46:54;;;;;;;10.68;1.80;;;16.20;99.90;;;;;;5063069;28;20045;-57
2022/05/21 08:49:25;;;;;;;9.57;2.08;;;16.30;99.90;;;;;;5086441;28;20110;-59
2022/05/21 08:51:56;;;;;;;9.90;1.80;;;16.50;99.90;;;;;;5065125;28;20025;-59
2022/05/21 08:54:26;;;;;;;9.55;1.90;;;16.40;99.90;;;;;;5062803;28;20024;-57
2022/05/21 08:56:55;;;;;;;18.02;2.40;;;16.40;99.90;;;;;;5063571;28;22721;-57
2022/05/21 08:59:25;;;;;;;13.48;2.15;;;16.60;99.90;;;;;;5063461;28;20099;-57
2022/05/21 09:01:52;;;;;;;8.63;1.83;;;16.50;99.90;;;;;;5064018;28;20462;-58
2022/05/21 09:04:26;;;;;;;10.02;1.73;;;16.30;99.90;;;;;;5062770;28;20052;-59
2022/05/21 09:07:01;;;;;;;13.88;2.08;;;16.50;99.90;;;;;;5060876;28;20441;-58
2022/05/21 09:09:42;;;;;;;10.82;2.20;;;16.60;99.90;;;;;;5062899;28;20033;-59
2022/05/21 09:12:15;;;;;;;10.05;1.58;;;16.70;99.90;;;;;;5063237;28;20044;-57
2022/05/21 09:14:43;;;;;;;9.75;1.67;;;16.80;99.90;;;;;;5060988;28;20037;-58
2022/05/21 09:17:15;;;;;;;10.75;1.48;;;16.70;99.90;;;;;;5060144;28;20480;-59
2022/05/21 09:20:15;;;;;;;9.77;1.88;;;16.70;99.90;;;;;;5061511;28;20168;-58
2022/05/21 09:22:53;;;;;;;9.70;1.92;;;16.50;99.90;;;;;;5051212;28;20055;-58
2022/05/21 09:25:26;;;;;;;7.15;2.05;;;16.40;99.90;;;;;;5062616;28;20722;-59
2022/05/21 09:28:11;;;;;;;9.65;1.90;;;16.70;99.90;;;;;;5063485;28;21487;-59
2022/05/21 09:30:40;;;;;;;9.05;1.73;;;17.00;99.90;;;;;;5063877;28;20032;-58
2022/05/21 09:33:32;;;;;;;8.32;1.98;;;17.40;99.90;;;;;;5056830;28;20039;-59
2022/05/21 09:35:59;;;;;;;7.75;1.67;;;17.40;99.90;;;;;;5062662;28;20514;-60
2022/05/21 09:38:30;;;;;;;8.98;2.08;;;17.60;99.90;;;;;;5063677;28;20075;-60
2022/05/21 09:41:21;;;;;;;9.25;1.77;;;17.30;99.90;;;;;;5063683;28;20050;-60
2022/05/21 09:47:15;;;;;;;11.90;1.80;;;16.60;99.90;;;;;;5025911;28;20666;-59
2022/05/21 09:49:42;;;;;;;9.43;1.70;;;16.50;99.90;;;;;;5061892;28;20094;-59
2022/05/21 09:52:23;;;;;;;10.88;1.77;;;16.80;99.90;;;;;;5060846;28;20382;-58
2022/05/21 09:54:49;;;;;;;9.15;1.67;;;17.20;99.90;;;;;;5061389;28;20181;-59
2022/05/21 09:57:43;;;;;;;9.68;1.98;;;17.40;99.90;;;;;;5062229;28;20044;-60
2022/05/21 10:00:23;;;;;;;15.85;2.10;;;17.50;99.90;;;;;;5062640;28;20064;-59
2022/05/21 10:03:13;;;;;;;7.60;1.83;;;17.20;99.90;;;;;;5062817;28;20127;-58
2022/05/21 10:05:48;;;;;;;10.57;1.60;;;17.10;99.90;;;;;;5084194;28;20043;-59
2022/05/21 10:11:31;;;;;;;9.23;1.55;;;18.00;99.90;;;;;;5061624;28;20112;-59
2022/05/21 10:14:03;;;;;;;9.57;1.58;;;18.40;99.90;;;;;;5060887;28;20076;-59
2022/05/21 10:16:38;;;;;;;7.32;1.55;;;18.60;99.90;;;;;;5062857;28;20032;-59
2022/05/21 10:19:46;;;;;;;9.02;2.08;;;17.90;99.90;;;;;;5062403;28;20071;-58
2022/05/21 10:22:29;;;;;;;13.23;1.90;;;17.90;99.90;;;;;;5059939;28;20040;-59
2022/05/21 10:25:04;;;;;;;8.97;1.70;;;18.10;99.90;;;;;;5061428;28;20051;-58
2022/05/21 10:27:36;;;;;;;10.13;2.00;;;17.90;99.90;;;;;;5061322;28;20310;-60
2022/05/21 10:30:25;;;;;;;12.35;2.00;;;18.10;99.90;;;;;;5061382;28;20033;-59
2022/05/21 10:33:07;;;;;;;8.57;1.58;;;18.00;99.90;;;;;;5080622;28;20494;-56
2022/05/21 10:36:00;;;;;;;11.65;1.65;;;17.60;99.90;;;;;;5059557;28;20029;-58
2022/05/21 10:38:51;;;;;;;9.35;1.67;;;17.60;99.90;;;;;;5062506;28;20044;-58
2022/05/21 10:41:35;;;;;;;8.75;1.90;;;17.90;99.90;;;;;;5061337;28;20044;-58
2022/05/21 10:44:31;;;;;;;12.40;2.05;;;18.30;99.90;;;;;;5062231;28;20036;-59
2022/05/21 10:47:03;;;;;;;7.10;1.52;;;18.00;99.90;;;;;;5056632;28;20174;-57
2022/05/21 10:49:47;;;;;;;7.97;1.45;;;17.70;99.90;;;;;;5057075;28;20049;-58
2022/05/21 10:52:41;;;;;;;8.80;1.40;;;17.60;99.90;;;;;;5057256;28;20068;-58
2022/05/21 10:55:17;;;;;;;7.70;1.45;;;17.60;99.90;;;;;;5056171;28;20024;-59
2022/05/21 10:58:20;;;;;;;4.05;1.10;;;17.50;99.90;;;;;;5057900;28;20045;-59
2022/05/21 11:01:19;;;;;;;8.43;1.63;;;17.70;99.90;;;;;;5054790;28;20171;-58
2022/05/21 11:04:27;;;;;;;10.02;1.63;;;17.80;99.90;;;;;;5055374;28;20036;-58
2022/05/21 11:07:23;;;;;;;7.13;1.50;;;18.10;99.90;;;;;;5056335;28;20037;-58
2022/05/21 11:10:05;;;;;;;9.07;1.98;;;18.10;99.90;;;;;;5055457;28;20043;-58
2022/05/21 11:12:47;;;;;;;9.90;1.50;;;17.90;99.90;;;;;;5054420;28;21215;-59
2022/05/21 11:15:34;;;;;;;8.52;1.60;;;18.10;99.90;;;;;;5056663;28;20068;-57
2022/05/21 11:18:07;;;;;;;8.20;1.40;;;17.90;99.90;;;;;;5050489;28;20127;-58
2022/05/21 11:20:40;;;;;;;9.25;1.95;;;18.10;99.90;;;;;;5053848;28;20557;-57
2022/05/21 11:23:21;;;;;;;5.45;1.25;;;18.20;99.90;;;;;;5052913;28;20158;-58
2022/05/21 11:26:01;;;;;;;8.30;1.75;;;18.10;99.90;;;;;;5052867;28;20040;-57
2022/05/21 11:28:40;;;;;;;6.97;1.67;;;17.90;99.90;;;;;;5055662;28;20029;-57
2022/05/21 11:31:10;;;;;;;10.77;1.85;;;17.80;99.90;;;;;;5053974;28;20037;-58
2022/05/21 11:39:16;;;;;;;9.25;1.88;;;18.10;99.90;;;;;;5055105;28;20158;-58
2022/05/21 11:42:02;;;;;;;6.32;1.45;;;17.90;99.90;;;;;;5052855;28;20037;-57
2022/05/21 11:44:56;;;;;;;10.75;1.98;;;17.90;99.90;;;;;;5057099;28;20130;-57
2022/05/21 11:47:25;;;;;;;9.00;1.98;;;17.70;99.90;;;;;;5056944;28;20060;-57
2022/05/21 11:49:57;;;;;;;6.65;1.60;;;18.00;99.90;;;;;;5052818;28;20080;-58
2022/05/21 11:52:26;;;;;;;7.97;1.85;;;17.90;99.90;;;;;;5057224;28;20432;-59
2022/05/21 11:54:55;;;;;;;8.77;1.85;;;18.10;99.90;;;;;;5057987;28;20041;-59
2022/05/21 11:57:39;;;;;;;8.80;1.60;;;18.20;99.90;;;;;;5057882;28;20048;-60
2022/05/21 12:00:08;;;;;;;8.57;1.75;;;18.40;99.90;;;;;;5058270;28;20086;-58
2022/05/21 12:02:37;;;;;;;11.02;1.90;;;18.10;99.90;;;;;;5060863;28;20041;-59
2022/05/21 12:05:08;;;;;;;11.05;2.10;;;18.30;99.90;;;;;;5060202;28;20040;-59
2022/05/21 12:07:43;;;;;;;6.60;1.63;;;18.40;99.90;;;;;;5062758;28;20763;-59
2022/05/21 12:10:14;;;;;;;12.07;1.98;;;18.70;99.90;;;;;;5062372;28;20547;-59
2022/05/21 12:12:59;;;;;;;8.50;2.15;;;19.00;99.90;;;;;;5062305;28;20032;-60
2022/05/21 12:15:46;;;;;;;11.15;2.30;;;19.20;99.90;;;;;;5061237;28;20082;-59
2022/05/21 12:18:37;;;;;;;10.23;2.20;;;19.20;99.90;;;;;;5055305;28;20505;-58
2022/05/21 12:32:16;;;;;;;15.90;4.07;;;18.80;99.90;;;;;;5127951;27;20418;-58
2022/05/21 12:35:10;;;;;;;9.07;2.17;;;19.40;99.90;;;;;;5124532;27;20055;-59
2022/05/21 12:37:42;;;;;;;10.27;2.33;;;19.40;99.90;;;;;;5126429;27;20042;-60
2022/05/21 12:40:37;;;;;;;10.13;2.58;;;19.50;99.90;;;;;;5129662;27;20035;-59
2022/05/21 12:43:08;;;;;;;12.13;2.30;;;19.40;99.90;;;;;;5139695;27;20122;-59
2022/05/21 12:45:45;;;;;;;11.48;2.33;;;19.40;99.90;;;;;;5134564;27;20040;-60
2022/05/21 12:48:10;;;;;;;10.85;1.85;;;19.40;99.90;;;;;;5128705;27;20047;-57
2022/05/21 12:50:48;;;;;;;10.82;2.40;;;18.80;99.90;;;;;;5139062;27;20118;-60
2022/05/21 12:53:29;;;;;;;9.50;2.17;;;18.90;99.90;;;;;;5137468;27;20520;-59
2022/05/21 12:56:01;;;;;;;9.55;2.40;;;19.00;99.90;;;;;;5124485;27;20489;-58
2022/05/21 12:58:27;;;;;;;9.40;2.40;;;19.00;99.90;;;;;;5137085;27;20485;-59
2022/05/21 13:00:54;;;;;;;10.40;1.88;;;19.00;99.90;;;;;;5126448;27;20044;-58
2022/05/21 13:03:23;;;;;;;12.82;1.95;;;19.70;99.90;;;;;;5135678;27;20122;-59
2022/05/21 13:06:04;;;;;;;9.60;2.28;;;19.40;99.90;;;;;;5130641;27;20043;-58
2022/05/21 13:08:32;;;;;;;12.63;2.20;;;18.90;99.90;;;;;;5123188;27;20063;-59
2022/05/21 13:11:06;;;;;;;15.50;2.20;;;18.80;99.90;;;;;;5124926;27;20035;-58
2022/05/21 13:13:36;;;;;;;6.38;1.70;;;18.50;99.90;;;;;;5140697;27;20043;-57
2022/05/21 13:16:05;;;;;;;10.85;2.17;;;18.40;99.90;;;;;;5135702;27;20265;-59
2022/05/21 13:18:55;;;;;;;11.05;1.83;;;18.60;99.90;;;;;;5135876;27;20111;-61
2022/05/21 13:21:40;;;;;;;8.60;1.58;;;20.00;99.90;;;;;;5127792;27;20130;-59
2022/05/21 13:24:33;;;;;;;10.52;1.90;;;20.30;99.90;;;;;;5123958;27;20031;-59
2022/05/21 13:27:17;;;;;;;13.05;2.45;;;20.40;99.90;;;;;;5125441;27;20477;-59
2022/05/21 13:29:43;;;;;;;;;;;20.00;99.90;;;;;;5127816;27;20506;-60
2022/05/21 13:32:30;;;;;;;9.55;2.00;;;19.70;99.90;;;;;;5145216;27;20010;-59
2022/05/21 13:35:21;;;;;;;9.50;1.73;;;19.80;99.90;;;;;;5132092;27;20042;-59
2022/05/21 13:37:47;;;;;;;8.93;1.77;;;20.30;99.90;;;;;;5133375;27;20416;-60
2022/05/21 13:40:18;;;;;;;9.77;1.75;;;20.20;99.90;;;;;;5148850;27;20529;-59
2022/05/21 13:42:47;;;;;;;14.23;2.50;;;19.90;99.90;;;;;;5148740;27;20039;-62